createdAt,value
2019-01-02T00:01:04.244Z,11.60
2019-01-02T00:03:34.797Z,12.83
2019-01-02T00:06:05.337Z,11.17
2019-01-02T00:08:36.092Z,9.47
2019-01-02T00:11:06.614Z,6.80
2019-01-02T00:13:37.995Z,17.13
2019-01-02T00:16:08.802Z,9.30
2019-01-02T00:18:39.930Z,7.53
2019-01-02T00:21:10.408Z,14.60
2019-01-02T00:23:41.139Z,8.23
2019-01-02T00:26:11.564Z,12.17
2019-01-02T00:28:42.399Z,10.13
2019-01-02T00:31:13.188Z,9.23
2019-01-02T00:33:43.639Z,11.40
2019-01-02T00:36:14.433Z,14.67
2019-01-02T00:38:45.131Z,7.30
2019-01-02T00:41:16.213Z,8.67
2019-01-02T00:43:48.711Z,9.57
2019-01-02T00:46:19.562Z,10.67
2019-01-02T00:48:50.481Z,13.30
2019-01-02T00:51:21.263Z,6.10
2019-01-02T00:53:52.130Z,8.27
2019-01-02T00:56:22.895Z,6.20
2019-01-02T00:58:53.899Z,8.77
2019-01-02T01:01:24.460Z,5.27
2019-01-02T01:03:55.270Z,12.93
2019-01-02T01:06:25.758Z,10.53
2019-01-02T01:08:56.531Z,10.80
2019-01-02T01:11:27.257Z,9.53
2019-01-02T01:13:59.087Z,8.47
2019-01-02T01:16:29.697Z,10.87
2019-01-02T01:19:00.615Z,9.47
2019-01-02T01:21:31.303Z,10.63
2019-01-02T01:24:03.008Z,6.40
2019-01-02T01:26:33.831Z,19.73
2019-01-02T01:29:04.635Z,13.13
2019-01-02T01:31:35.651Z,7.63
2019-01-02T01:34:06.291Z,10.67
2019-01-02T01:36:36.783Z,10.53
2019-01-02T01:39:09.700Z,16.50
2019-01-02T01:41:40.426Z,12.50
2019-01-02T01:44:12.588Z,8.63
2019-01-02T01:46:43.334Z,12.63
2019-01-02T01:49:14.262Z,7.53
2019-01-02T01:51:45.316Z,18.13
2019-01-02T01:54:16.200Z,12.43
2019-01-02T01:56:46.918Z,11.63
2019-01-02T01:59:18.320Z,8.50
2019-01-02T02:01:48.973Z,8.30
2019-01-02T02:04:19.662Z,11.87
2019-01-02T02:06:50.391Z,16.67
2019-01-02T02:09:21.158Z,14.77
2019-01-02T02:11:52.129Z,19.97
2019-01-02T02:14:22.746Z,16.50
2019-01-02T02:16:53.702Z,13.70
2019-01-02T02:19:24.622Z,16.40
2019-01-02T02:21:55.089Z,11.80
2019-01-02T02:24:25.885Z,10.77
2019-01-02T02:26:56.927Z,15.37
2019-01-02T02:29:27.565Z,15.10
2019-01-02T02:31:58.559Z,12.70
2019-01-02T02:34:29.093Z,12.63
2019-01-02T02:36:59.585Z,12.13
2019-01-02T02:39:30.517Z,14.10
2019-01-02T02:42:01.468Z,13.53
2019-01-02T02:44:32.590Z,13.83
2019-01-02T02:47:03.651Z,14.33
2019-01-02T02:49:34.383Z,9.63
2019-01-02T02:52:04.914Z,10.70
2019-01-02T02:54:35.849Z,9.97
2019-01-02T02:57:06.529Z,5.30
2019-01-02T02:59:37.119Z,6.50
2019-01-02T03:02:08.030Z,11.90
2019-01-02T03:04:39.134Z,7.00
2019-01-02T03:07:10.048Z,5.33
2019-01-02T03:09:40.973Z,7.50
2019-01-02T03:12:12.034Z,5.93
2019-01-02T03:14:42.709Z,9.63
2019-01-02T03:17:13.339Z,9.57
2019-01-02T03:19:44.191Z,9.10
2019-01-02T03:22:15.196Z,6.37
2019-01-02T03:24:46.444Z,4.30
2019-01-02T03:27:17.460Z,5.73
2019-01-02T03:29:48.564Z,5.37
2019-01-02T03:32:19.032Z,6.97
2019-01-02T03:34:50.166Z,11.73
2019-01-02T03:37:20.772Z,6.33
2019-01-02T03:39:51.382Z,7.47
2019-01-02T03:42:22.071Z,10.63
2019-01-02T03:44:52.792Z,7.70
2019-01-02T03:47:23.962Z,5.93
2019-01-02T03:49:54.660Z,8.60
2019-01-02T03:52:25.623Z,8.57
2019-01-02T03:54:56.562Z,8.57
2019-01-02T03:57:27.073Z,9.07
2019-01-02T03:59:57.702Z,9.07
2019-01-02T04:02:28.205Z,7.83
2019-01-02T04:04:58.782Z,7.57
2019-01-02T04:07:29.277Z,7.03
2019-01-02T04:09:59.787Z,7.97
2019-01-02T04:12:30.518Z,9.20
2019-01-02T04:15:01.302Z,8.07
2019-01-02T04:17:32.091Z,5.23
2019-01-02T04:20:02.810Z,5.40
2019-01-02T04:22:34.838Z,9.97
2019-01-02T04:25:05.762Z,8.43
2019-01-02T04:27:36.750Z,7.63
2019-01-02T04:30:09.548Z,7.60
2019-01-02T04:32:40.630Z,6.80
2019-01-02T04:35:11.510Z,7.57
2019-01-02T04:37:42.147Z,6.20
2019-01-02T04:40:13.579Z,9.70
2019-01-02T04:42:44.146Z,8.03
2019-01-02T04:45:14.954Z,4.50
2019-01-02T04:47:45.723Z,6.07
2019-01-02T04:50:16.640Z,4.83
2019-01-02T04:52:47.295Z,5.37
2019-01-02T04:55:18.017Z,7.87
2019-01-02T04:57:48.496Z,6.93
2019-01-02T05:00:19.544Z,7.20
2019-01-02T05:02:50.201Z,9.10
2019-01-02T05:05:21.023Z,7.87
2019-01-02T05:07:51.571Z,6.27
2019-01-02T05:10:22.176Z,10.87
2019-01-02T05:12:52.707Z,5.53
2019-01-02T05:15:23.314Z,6.40
2019-01-02T05:17:53.963Z,7.37
2019-01-02T05:20:24.511Z,11.10
2019-01-02T05:22:55.247Z,8.90
2019-01-02T05:25:25.838Z,7.53
2019-01-02T05:27:56.571Z,6.30
2019-01-02T05:30:27.245Z,10.13
2019-01-02T05:32:58.187Z,7.13
2019-01-02T05:35:28.663Z,8.03
2019-01-02T05:37:59.235Z,9.87
2019-01-02T05:40:30.185Z,8.53
2019-01-02T05:43:00.714Z,10.40
2019-01-02T05:45:31.846Z,11.17
2019-01-02T05:48:02.440Z,14.53
2019-01-02T05:50:33.255Z,11.87
2019-01-02T05:53:03.774Z,13.50
2019-01-02T05:55:34.470Z,13.50
2019-01-02T05:58:05.108Z,18.77
2019-01-02T06:00:39.822Z,11.17
2019-01-02T06:03:07.758Z,13.87
2019-01-02T06:05:38.444Z,12.07
2019-01-02T06:08:09.121Z,24.73
2019-01-02T06:10:39.679Z,29.10
2019-01-02T06:13:10.546Z,10.70
2019-01-02T06:15:41.180Z,16.33
2019-01-02T06:18:12.315Z,19.20
2019-01-02T06:20:43.413Z,21.83
2019-01-02T06:23:13.938Z,22.50
2019-01-02T06:25:44.554Z,27.50
2019-01-02T06:28:15.419Z,17.80
2019-01-02T06:30:46.089Z,23.10
2019-01-02T06:33:16.726Z,16.10
2019-01-02T06:35:47.329Z,15.73
2019-01-02T06:38:18.616Z,23.93
2019-01-02T06:40:49.287Z,25.10
2019-01-02T06:43:20.256Z,27.57
2019-01-02T06:45:51.544Z,16.63
2019-01-02T06:48:22.446Z,19.27
2019-01-02T06:50:53.207Z,22.43
2019-01-02T06:53:23.826Z,24.73
2019-01-02T06:55:55.644Z,18.93
2019-01-02T06:58:26.479Z,25.87
2019-01-02T07:00:57.101Z,21.27
2019-01-02T07:03:27.822Z,22.97
2019-01-02T07:05:58.489Z,38.53
2019-01-02T07:08:29.045Z,29.37
2019-01-02T07:10:59.703Z,31.67
2019-01-02T07:13:30.276Z,21.83
2019-01-02T07:16:00.776Z,24.50
2019-01-02T07:18:31.518Z,23.87
2019-01-02T07:21:02.227Z,24.10
2019-01-02T07:23:33.055Z,26.17
2019-01-02T07:26:04.001Z,32.17
2019-01-02T07:28:34.937Z,25.97
2019-01-02T07:31:05.704Z,27.10
2019-01-02T07:33:46.933Z,24.33
2019-01-02T07:36:55.625Z,20.53
2019-01-02T07:40:02.112Z,14.50
2019-01-02T07:43:19.610Z,18.33
2019-01-02T07:46:08.780Z,30.00
2019-01-02T07:49:12.014Z,19.50
2019-01-02T07:52:22.732Z,25.17
2019-01-02T07:55:34.682Z,11.73
2019-01-02T07:58:33.275Z,34.60
2019-01-02T08:01:26.470Z,27.80
2019-01-02T08:04:42.447Z,25.60
2019-01-02T08:07:39.637Z,19.13
2019-01-02T08:11:00.290Z,17.33
2019-01-02T08:14:00.238Z,28.90
2019-01-02T08:17:30.002Z,28.30
2019-01-02T08:20:53.399Z,25.50
2019-01-02T08:24:20.272Z,25.10
2019-01-02T08:27:27.881Z,31.30
2019-01-02T08:30:48.719Z,33.30
2019-01-02T08:33:43.033Z,19.67
2019-01-02T08:37:00.765Z,30.20
2019-01-02T08:40:08.333Z,25.40
2019-01-02T08:43:18.739Z,34.53
2019-01-02T08:46:26.317Z,25.87
2019-01-02T08:49:37.025Z,27.33
2019-01-02T08:52:51.433Z,38.47
2019-01-02T08:55:51.128Z,30.53
2019-01-02T08:59:04.691Z,37.13
2019-01-02T09:02:04.775Z,23.37
2019-01-02T09:05:16.121Z,34.47
2019-01-02T09:08:42.755Z,31.07
2019-01-02T09:12:06.581Z,35.07
2019-01-02T09:15:10.095Z,25.70
2019-01-02T09:18:20.962Z,32.77
2019-01-02T09:21:35.395Z,25.73
2019-01-02T09:24:56.112Z,31.53
2019-01-02T09:28:08.148Z,32.77
2019-01-02T09:31:32.748Z,26.60
2019-01-02T09:34:35.883Z,22.70
2019-01-02T09:37:56.663Z,30.47
2019-01-02T09:40:51.603Z,25.33
2019-01-02T09:43:59.330Z,30.93
2019-01-02T09:47:10.022Z,29.13
2019-01-02T09:50:25.635Z,28.20
2019-01-02T09:53:31.456Z,32.30
2019-01-02T09:56:32.498Z,29.73
2019-01-02T09:59:28.114Z,35.27
2019-01-02T10:02:26.239Z,27.83
2019-01-02T10:05:34.099Z,34.77
2019-01-02T10:08:47.339Z,36.43
2019-01-02T10:11:45.842Z,22.27
2019-01-02T10:15:09.355Z,23.00
2019-01-02T10:18:34.606Z,32.07
2019-01-02T10:21:49.086Z,32.57
2019-01-02T10:24:45.103Z,33.60
2019-01-02T10:28:00.430Z,21.43
2019-01-02T10:31:03.631Z,26.43
2019-01-02T10:34:12.244Z,31.60
2019-01-02T10:37:23.361Z,23.60
2019-01-02T10:40:20.466Z,35.87
2019-01-02T10:43:26.904Z,30.80
2019-01-02T10:46:56.975Z,30.20
2019-01-02T10:49:54.873Z,24.50
2019-01-02T10:53:22.123Z,28.00
2019-01-02T10:56:32.718Z,30.93
2019-01-02T10:59:38.943Z,25.67
2019-01-02T11:02:45.480Z,20.87
2019-01-02T11:05:53.200Z,20.90
2019-01-02T11:08:57.036Z,29.63
2019-01-02T11:12:04.435Z,31.27
2019-01-02T11:15:08.064Z,21.80
2019-01-02T11:17:52.987Z,23.77
2019-01-02T11:20:59.338Z,28.53
2019-01-02T11:24:05.557Z,20.63
2019-01-02T11:27:35.631Z,28.80
2019-01-02T11:30:38.061Z,18.67
2019-01-02T11:33:30.967Z,25.27
2019-01-02T11:36:45.588Z,23.33
2019-01-02T11:39:57.904Z,27.67
2019-01-02T11:43:05.319Z,26.33
2019-01-02T11:45:35.919Z,51.63
2019-01-02T11:48:06.428Z,29.93
2019-01-02T11:50:36.978Z,20.00
2019-01-02T11:53:07.712Z,18.67
2019-01-02T11:55:38.441Z,17.03
2019-01-02T11:58:08.870Z,25.97
2019-01-02T12:00:39.710Z,16.87
2019-01-02T12:03:10.215Z,12.60
2019-01-02T12:05:41.082Z,10.23
2019-01-02T12:08:11.853Z,3.60
2019-01-02T12:10:42.536Z,4.43
2019-01-02T12:13:13.357Z,4.10
2019-01-02T12:15:43.997Z,5.97
2019-01-02T12:18:14.963Z,5.30
2019-01-02T12:20:45.651Z,5.73
2019-01-02T12:23:16.430Z,8.70
2019-01-02T12:25:47.105Z,6.60
2019-01-02T12:28:18.092Z,5.30
2019-01-02T12:30:49.014Z,3.57
2019-01-02T12:33:20.662Z,7.57
2019-01-02T12:35:51.388Z,7.43
2019-01-02T12:38:22.163Z,5.97
2019-01-02T12:40:53.004Z,2.83
2019-01-02T12:43:24.030Z,4.97
2019-01-02T12:45:55.774Z,4.87
2019-01-02T12:48:26.531Z,5.10
2019-01-02T12:50:57.554Z,4.67
2019-01-02T12:53:28.285Z,6.63
2019-01-02T12:55:58.789Z,3.73
2019-01-02T12:58:29.221Z,5.67
2019-01-02T13:01:05.033Z,5.43
2019-01-02T13:04:28.766Z,5.80
2019-01-02T13:07:54.503Z,7.43
2019-01-02T13:11:03.716Z,5.00
2019-01-02T13:14:21.114Z,3.07
2019-01-02T13:17:07.367Z,7.77
2019-01-02T13:20:24.663Z,5.20
2019-01-02T13:23:38.577Z,3.00
2019-01-02T13:26:22.598Z,6.87
2019-01-02T13:30:01.287Z,6.10
2019-01-02T13:33:02.225Z,2.33
2019-01-02T13:36:19.588Z,4.70
2019-01-02T13:39:21.016Z,6.23
2019-01-02T13:42:38.611Z,3.90
2019-01-02T13:45:28.098Z,5.83
2019-01-02T13:48:38.585Z,7.67
2019-01-02T13:51:24.552Z,10.43
2019-01-02T13:53:55.391Z,11.20
2019-01-02T13:56:26.732Z,7.70
2019-01-02T13:58:57.483Z,10.70
2019-01-02T14:01:28.347Z,8.60
2019-01-02T14:04:02.141Z,6.63
2019-01-02T14:06:32.763Z,7.60
2019-01-02T14:09:06.331Z,6.43
2019-01-02T14:11:37.000Z,5.40
2019-01-02T14:14:07.680Z,5.57
2019-01-02T14:16:38.230Z,8.67
2019-01-02T14:19:08.735Z,7.03
2019-01-02T14:21:40.456Z,19.53
2019-01-02T14:24:10.995Z,8.60
2019-01-02T14:26:41.532Z,6.23
2019-01-02T14:29:12.233Z,6.40
2019-01-02T14:31:43.045Z,7.20
2019-01-02T14:34:13.561Z,9.17
2019-01-02T14:36:44.137Z,7.83
2019-01-02T14:39:14.685Z,8.97
2019-01-02T14:41:45.249Z,11.10
2019-01-02T14:44:16.084Z,7.63
2019-01-02T14:46:50.387Z,7.00
2019-01-02T14:49:18.913Z,9.87
2019-01-02T14:51:49.505Z,14.97
2019-01-02T14:54:20.096Z,8.53
2019-01-02T14:56:50.605Z,9.37
2019-01-02T14:59:21.449Z,14.83
2019-01-02T15:01:52.059Z,10.87
2019-01-02T15:04:22.559Z,5.33
2019-01-02T15:06:53.134Z,14.23
2019-01-02T15:09:23.705Z,8.90
2019-01-02T15:11:54.644Z,8.30
2019-01-02T15:14:25.196Z,8.47
2019-01-02T15:16:55.947Z,6.70
2019-01-02T15:19:26.577Z,8.40
2019-01-02T15:21:57.268Z,8.27
2019-01-02T15:24:27.808Z,8.33
2019-01-02T15:26:58.456Z,11.03
2019-01-02T15:29:29.346Z,6.80
2019-01-02T15:31:59.976Z,10.30
2019-01-02T15:34:30.462Z,9.20
2019-01-02T15:37:01.339Z,8.07
2019-01-02T15:39:31.778Z,10.87
2019-01-02T15:42:02.249Z,12.53
2019-01-02T15:44:32.924Z,14.57
2019-01-02T15:47:08.373Z,11.13
2019-01-02T15:49:35.954Z,12.93
2019-01-02T15:52:06.549Z,12.27
2019-01-02T15:54:37.339Z,11.53
2019-01-02T15:57:07.903Z,17.60
2019-01-02T15:59:38.485Z,7.27
2019-01-02T16:02:09.048Z,11.97
2019-01-02T16:04:41.186Z,13.13
2019-01-02T16:07:13.141Z,9.53
2019-01-02T16:09:45.383Z,13.30
2019-01-02T16:12:16.265Z,13.57
2019-01-02T16:14:48.087Z,10.90
2019-01-02T16:17:18.875Z,13.90
2019-01-02T16:19:49.635Z,11.23
2019-01-02T16:22:20.551Z,15.07
2019-01-02T16:24:51.619Z,12.73
2019-01-02T16:27:22.481Z,18.47
2019-01-02T16:29:53.230Z,16.80
2019-01-02T16:32:24.125Z,19.73
2019-01-02T16:34:55.342Z,17.83
2019-01-02T16:37:26.219Z,24.40
2019-01-02T16:39:57.154Z,25.07
2019-01-02T16:42:27.926Z,17.93
2019-01-02T16:44:58.516Z,12.07
2019-01-02T16:47:29.393Z,16.80
2019-01-02T16:49:59.885Z,16.17
2019-01-02T16:52:30.907Z,12.77
2019-01-02T16:55:03.151Z,8.87
2019-01-02T16:57:33.962Z,7.80
2019-01-02T17:00:04.998Z,8.90
2019-01-02T17:02:35.830Z,8.67
2019-01-02T17:05:08.063Z,10.43
2019-01-02T17:07:38.912Z,11.60
2019-01-02T17:10:11.497Z,14.27
2019-01-02T17:12:42.955Z,8.00
2019-01-02T17:15:13.659Z,8.90
2019-01-02T17:17:45.776Z,12.13
2019-01-02T17:20:16.301Z,16.90
2019-01-02T17:22:47.012Z,12.50
2019-01-02T17:25:17.596Z,16.33
2019-01-02T17:27:48.687Z,17.47
2019-01-02T17:30:21.538Z,16.63
2019-01-02T17:32:52.584Z,24.40
2019-01-02T17:35:23.398Z,14.40
2019-01-02T17:37:54.347Z,18.63
2019-01-02T17:40:25.047Z,22.67
2019-01-02T17:42:56.259Z,14.10
2019-01-02T17:45:28.317Z,14.40
2019-01-02T17:47:59.329Z,12.50
2019-01-02T17:50:30.195Z,14.43
2019-01-02T17:53:00.918Z,12.10
2019-01-02T17:55:32.044Z,14.27
2019-01-02T17:58:02.850Z,18.83
2019-01-02T18:00:33.982Z,26.40
2019-01-02T18:03:05.064Z,16.27
2019-01-02T18:05:35.637Z,19.77
2019-01-02T18:08:06.820Z,18.07
2019-01-02T18:10:37.773Z,13.20
2019-01-02T18:13:08.369Z,12.80
2019-01-02T18:15:39.168Z,11.60
2019-01-02T18:18:10.682Z,12.53
2019-01-02T18:20:41.382Z,15.43
2019-01-02T18:23:11.986Z,14.57
2019-01-02T18:25:42.968Z,17.13
2019-01-02T18:28:13.775Z,16.73
2019-01-02T18:30:44.973Z,18.30
2019-01-02T18:33:15.846Z,15.33
2019-01-02T18:35:46.571Z,14.63
2019-01-02T18:38:17.521Z,16.37
2019-01-02T18:40:48.487Z,12.07
2019-01-02T18:43:19.316Z,10.10
2019-01-02T18:45:50.375Z,12.43
2019-01-02T18:48:20.997Z,10.63
2019-01-02T18:50:52.355Z,12.60
2019-01-02T18:53:23.223Z,8.77
2019-01-02T18:55:53.776Z,10.33
2019-01-02T18:58:24.431Z,7.87
2019-01-02T19:00:55.168Z,10.20
2019-01-02T19:03:25.665Z,12.37
2019-01-02T19:05:56.249Z,9.63
2019-01-02T19:08:26.866Z,10.70
2019-01-02T19:10:57.620Z,12.53
2019-01-02T19:13:28.434Z,11.80
2019-01-02T19:15:58.977Z,7.43
2019-01-02T19:18:29.983Z,12.60
2019-01-02T19:21:00.575Z,13.07
2019-01-02T19:23:31.298Z,11.07
2019-01-02T19:26:02.552Z,15.17
2019-01-02T19:28:33.416Z,9.77
2019-01-02T19:31:04.187Z,10.47
2019-01-02T19:33:34.746Z,9.10
2019-01-02T19:36:05.334Z,14.30
2019-01-02T19:38:36.384Z,9.33
2019-01-02T19:41:07.201Z,9.70
2019-01-02T19:43:38.195Z,7.80
2019-01-02T19:46:08.841Z,9.87
2019-01-02T19:48:39.567Z,13.50
2019-01-02T19:51:10.676Z,10.97
2019-01-02T19:53:41.676Z,10.97
2019-01-02T19:56:12.741Z,13.97
2019-01-02T19:58:43.748Z,10.30
2019-01-02T20:01:14.581Z,11.87
2019-01-02T20:03:45.208Z,8.80
2019-01-02T20:06:16.547Z,10.27
2019-01-02T20:08:47.395Z,13.00
2019-01-02T20:11:18.433Z,9.57
2019-01-02T20:13:49.242Z,9.40
2019-01-02T20:16:20.213Z,13.00
2019-01-02T20:18:50.807Z,11.83
2019-01-02T20:21:21.523Z,18.27
2019-01-02T20:23:52.284Z,9.40
2019-01-02T20:26:22.936Z,12.00
2019-01-02T20:28:53.778Z,14.93
2019-01-02T20:31:24.910Z,14.93
2019-01-02T20:33:57.248Z,15.00
2019-01-02T20:36:28.036Z,21.63
2019-01-02T20:38:59.274Z,23.27
2019-01-02T20:41:30.369Z,18.23
2019-01-02T20:44:01.256Z,15.70
2019-01-02T20:46:32.016Z,15.00
2019-01-02T20:49:02.796Z,14.03
2019-01-02T20:51:35.170Z,11.03
2019-01-02T20:54:05.945Z,15.00
2019-01-02T20:56:37.215Z,17.20
2019-01-02T20:59:08.028Z,21.87
2019-01-02T21:01:38.693Z,19.47
2019-01-02T21:04:09.246Z,23.27
2019-01-02T21:06:40.026Z,18.40
2019-01-02T21:09:10.636Z,18.20
2019-01-02T21:11:41.635Z,18.93
2019-01-02T21:14:12.399Z,11.30
2019-01-02T21:16:43.128Z,18.17
2019-01-02T21:19:13.868Z,15.60
2019-01-02T21:21:44.575Z,10.70
2019-01-02T21:24:15.231Z,18.67
2019-01-02T21:26:45.818Z,11.77
2019-01-02T21:29:16.470Z,13.57
2019-01-02T21:31:47.335Z,22.50
2019-01-02T21:34:18.043Z,11.60
2019-01-02T21:36:48.985Z,15.73
2019-01-02T21:39:20.250Z,12.27
2019-01-02T21:41:50.922Z,11.03
2019-01-02T21:44:21.726Z,9.27
2019-01-02T21:46:52.576Z,14.07
2019-01-02T21:49:23.182Z,11.43
2019-01-02T21:51:54.061Z,15.23
2019-01-02T21:54:24.982Z,9.70
2019-01-02T21:56:55.522Z,12.07
2019-01-02T21:59:26.418Z,11.90
2019-01-02T22:01:57.385Z,11.73
2019-01-02T22:04:28.623Z,14.73
2019-01-02T22:06:59.653Z,13.03
2019-01-02T22:09:30.176Z,12.90
2019-01-02T22:12:01.158Z,13.07
2019-01-02T22:14:33.746Z,11.67
2019-01-02T22:17:04.402Z,12.83
2019-01-02T22:19:34.978Z,15.40
2019-01-02T22:22:05.675Z,9.13
2019-01-02T22:24:36.386Z,11.40
2019-01-02T22:27:07.006Z,19.67
2019-01-02T22:29:37.669Z,27.67
2019-01-02T22:32:08.434Z,13.97
2019-01-02T22:34:39.367Z,13.50
2019-01-02T22:37:09.901Z,16.60
2019-01-02T22:39:40.543Z,17.97
2019-01-02T22:42:11.204Z,13.33
2019-01-02T22:44:41.973Z,20.03
2019-01-02T22:47:13.185Z,10.87
2019-01-02T22:49:43.694Z,14.67
2019-01-02T22:52:14.318Z,13.83
2019-01-02T22:54:45.116Z,10.77
2019-01-02T22:57:15.537Z,9.93
2019-01-02T22:59:46.304Z,18.40
2019-01-02T23:02:29.757Z,12.30
2019-01-02T23:05:30.275Z,12.77
2019-01-02T23:08:19.357Z,9.20
2019-01-02T23:11:07.714Z,12.23
2019-01-02T23:14:09.617Z,12.67
2019-01-02T23:16:59.450Z,13.93
2019-01-02T23:19:58.000Z,12.83
2019-01-02T23:22:47.716Z,11.77
2019-01-02T23:25:36.095Z,14.77
2019-01-02T23:28:28.602Z,14.07
2019-01-02T23:31:17.987Z,9.93
2019-01-02T23:34:19.815Z,14.97
2019-01-02T23:37:11.939Z,16.40
2019-01-02T23:40:06.441Z,15.43
2019-01-02T23:42:55.762Z,13.13
2019-01-02T23:46:03.752Z,12.73
2019-01-02T23:48:51.981Z,15.23
2019-01-02T23:51:53.768Z,9.53
2019-01-02T23:54:46.286Z,9.80
2019-01-02T23:57:47.911Z,9.27
